createdAt,value
2019-03-29T00:00:50.940Z,55.52
2019-03-29T00:01:57.743Z,53.60
2019-03-29T00:03:03.449Z,53.05
2019-03-29T00:04:10.249Z,54.03
2019-03-29T00:05:16.790Z,56.37
2019-03-29T00:06:23.536Z,54.50
2019-03-29T00:07:39.376Z,53.60
2019-03-29T00:08:36.721Z,54.03
2019-03-29T00:09:42.891Z,54.23
2019-03-29T00:10:48.671Z,55.98
2019-03-29T00:11:55.518Z,54.33
2019-03-29T00:13:02.643Z,60.63
2019-03-29T00:14:09.170Z,58.68
2019-03-29T00:15:15.677Z,57.78
2019-03-29T00:16:22.204Z,57.58
2019-03-29T00:17:29.172Z,56.42
2019-03-29T00:18:36.100Z,57.30
2019-03-29T00:19:43.343Z,56.68
2019-03-29T00:20:49.479Z,55.48
2019-03-29T00:21:56.343Z,54.58
2019-03-29T00:23:03.437Z,54.38
2019-03-29T00:24:10.078Z,54.73
2019-03-29T00:25:15.915Z,58.23
2019-03-29T00:26:22.835Z,55.55
2019-03-29T00:27:29.555Z,58.33
2019-03-29T00:28:35.370Z,57.05
2019-03-29T00:29:43.076Z,53.00
2019-03-29T00:30:49.559Z,55.08
2019-03-29T00:31:55.645Z,56.45
2019-03-29T00:33:02.476Z,57.78
2019-03-29T00:34:08.787Z,57.23
2019-03-29T00:35:14.567Z,57.23
2019-03-29T00:36:21.400Z,55.67
2019-03-29T00:37:27.557Z,59.60
2019-03-29T00:38:33.585Z,55.38
2019-03-29T00:39:41.005Z,55.17
2019-03-29T00:40:47.290Z,54.10
2019-03-29T00:41:53.794Z,55.73
2019-03-29T00:43:00.121Z,54.48
2019-03-29T00:44:06.163Z,54.40
2019-03-29T00:45:12.362Z,56.85
2019-03-29T00:46:18.637Z,53.95
2019-03-29T00:47:26.050Z,53.15
2019-03-29T00:48:35.632Z,53.65
2019-03-29T00:49:41.505Z,52.95
2019-03-29T00:50:48.077Z,54.75
2019-03-29T00:51:54.826Z,55.52
2019-03-29T00:53:01.313Z,55.98
2019-03-29T00:54:07.433Z,52.70
2019-03-29T00:55:13.871Z,54.25
2019-03-29T00:56:19.893Z,51.37
2019-03-29T00:57:26.831Z,52.62
2019-03-29T00:58:33.953Z,54.08
2019-03-29T00:59:41.128Z,52.23
2019-03-29T01:00:48.587Z,52.03
2019-03-29T01:01:55.142Z,53.85
2019-03-29T01:03:00.920Z,51.75
2019-03-29T01:04:06.672Z,49.23
2019-03-29T01:05:13.291Z,52.03
2019-03-29T01:06:19.156Z,48.55
2019-03-29T01:07:26.042Z,47.90
2019-03-29T01:08:32.904Z,51.75
2019-03-29T01:09:40.702Z,51.55
2019-03-29T01:10:46.990Z,51.40
2019-03-29T01:11:53.846Z,48.80
2019-03-29T01:13:00.602Z,51.02
2019-03-29T01:14:06.369Z,50.28
2019-03-29T01:15:12.227Z,51.70
2019-03-29T01:16:21.112Z,51.83
2019-03-29T01:17:27.523Z,52.62
2019-03-29T01:18:34.971Z,47.78
2019-03-29T01:19:40.734Z,46.53
2019-03-29T01:20:47.411Z,50.90
2019-03-29T01:21:54.128Z,49.55
2019-03-29T01:23:00.791Z,51.95
2019-03-29T01:24:07.059Z,49.58
2019-03-29T01:25:12.802Z,53.45
2019-03-29T01:26:19.666Z,48.78
2019-03-29T01:27:25.970Z,51.30
2019-03-29T01:28:31.504Z,47.45
2019-03-29T01:29:38.071Z,50.67
2019-03-29T01:30:44.093Z,48.35
2019-03-29T01:31:51.379Z,49.85
2019-03-29T01:32:58.930Z,52.50
2019-03-29T01:34:04.613Z,58.25
2019-03-29T01:35:10.661Z,50.95
2019-03-29T01:36:17.461Z,55.48
2019-03-29T01:37:24.419Z,51.20
2019-03-29T01:38:30.832Z,53.45
2019-03-29T01:39:38.443Z,52.33
2019-03-29T01:40:45.761Z,54.13
2019-03-29T01:41:53.013Z,50.98
2019-03-29T01:42:59.197Z,51.68
2019-03-29T01:44:05.620Z,56.68
2019-03-29T01:45:11.376Z,50.23
2019-03-29T01:46:17.124Z,51.00
2019-03-29T01:47:24.514Z,50.33
2019-03-29T01:48:31.208Z,50.28
2019-03-29T01:49:37.751Z,53.30
2019-03-29T01:50:44.610Z,55.67
2019-03-29T01:51:51.375Z,51.42
2019-03-29T01:52:57.402Z,52.73
2019-03-29T01:54:04.479Z,50.30
2019-03-29T01:55:10.366Z,51.13
2019-03-29T01:56:17.058Z,50.75
2019-03-29T01:57:23.615Z,50.55
2019-03-29T01:58:29.986Z,51.53
2019-03-29T01:59:36.005Z,49.03
2019-03-29T02:00:41.971Z,50.20
2019-03-29T02:01:48.598Z,50.90
2019-03-29T02:02:54.884Z,50.85
2019-03-29T02:04:00.936Z,52.00
2019-03-29T02:05:07.340Z,50.50
2019-03-29T02:06:13.392Z,51.45
2019-03-29T02:07:19.183Z,50.52
2019-03-29T02:08:35.732Z,53.48
2019-03-29T02:09:34.977Z,50.60
2019-03-29T02:10:41.375Z,50.70
2019-03-29T02:11:47.127Z,49.03
2019-03-29T02:12:53.953Z,49.93
2019-03-29T02:14:00.575Z,49.98
2019-03-29T02:15:07.056Z,53.75
2019-03-29T02:16:14.154Z,52.05
2019-03-29T02:17:21.236Z,49.93
2019-03-29T02:18:29.564Z,51.30
2019-03-29T02:19:35.591Z,48.75
2019-03-29T02:20:41.925Z,50.63
2019-03-29T02:21:49.229Z,54.38
2019-03-29T02:22:55.236Z,53.05
2019-03-29T02:24:01.901Z,50.85
2019-03-29T02:25:08.237Z,57.45
2019-03-29T02:26:14.784Z,54.80
2019-03-29T02:27:21.246Z,50.00
2019-03-29T02:28:27.267Z,52.13
2019-03-29T02:29:33.839Z,54.10
2019-03-29T02:30:39.598Z,55.28
2019-03-29T02:31:45.683Z,53.73
2019-03-29T02:32:52.811Z,52.80
2019-03-29T02:33:59.362Z,51.28
2019-03-29T02:35:05.243Z,55.10
2019-03-29T02:36:12.604Z,54.85
2019-03-29T02:37:19.239Z,55.40
2019-03-29T02:38:24.980Z,55.00
2019-03-29T02:39:31.697Z,51.70
2019-03-29T02:40:37.616Z,55.25
2019-03-29T02:41:46.585Z,52.67
2019-03-29T02:42:53.078Z,54.40
2019-03-29T02:44:00.617Z,51.85
2019-03-29T02:45:06.723Z,51.95
2019-03-29T02:46:12.150Z,56.88
2019-03-29T02:47:18.599Z,58.68
2019-03-29T02:48:25.162Z,53.87
2019-03-29T02:49:32.892Z,54.60
2019-03-29T02:50:39.871Z,58.85
2019-03-29T02:51:47.221Z,51.92
2019-03-29T02:52:52.955Z,50.73
2019-03-29T02:53:59.289Z,54.98
2019-03-29T02:55:05.401Z,54.10
2019-03-29T02:56:11.155Z,54.80
2019-03-29T02:57:18.573Z,56.98
2019-03-29T02:58:24.593Z,55.12
2019-03-29T02:59:31.867Z,53.02
2019-03-29T03:00:39.282Z,55.25
2019-03-29T03:01:46.905Z,50.90
2019-03-29T03:02:53.193Z,53.35
2019-03-29T03:03:59.656Z,52.20
2019-03-29T03:05:07.092Z,53.35
2019-03-29T03:06:14.490Z,51.30
2019-03-29T03:07:20.108Z,54.05
2019-03-29T03:08:26.849Z,52.17
2019-03-29T03:09:32.912Z,52.73
2019-03-29T03:10:39.526Z,54.80
2019-03-29T03:11:46.334Z,52.58
2019-03-29T03:12:52.994Z,54.55
2019-03-29T03:13:59.231Z,52.90
2019-03-29T03:15:05.650Z,51.33
2019-03-29T03:16:12.203Z,54.50
2019-03-29T03:17:18.646Z,55.50
2019-03-29T03:18:26.968Z,54.20
2019-03-29T03:19:33.567Z,58.63
2019-03-29T03:20:40.132Z,48.50
2019-03-29T03:21:46.159Z,55.83
2019-03-29T03:22:52.376Z,51.50
2019-03-29T03:23:59.573Z,51.37
2019-03-29T03:25:05.621Z,54.33
2019-03-29T03:26:11.374Z,52.53
2019-03-29T03:27:17.256Z,51.58
2019-03-29T03:28:23.386Z,53.90
2019-03-29T03:29:30.308Z,52.67
2019-03-29T03:30:36.366Z,48.80
2019-03-29T03:31:42.416Z,50.38
2019-03-29T03:32:50.203Z,52.60
2019-03-29T03:33:56.993Z,51.58
2019-03-29T03:35:03.794Z,52.73
2019-03-29T03:36:09.824Z,52.27
2019-03-29T03:37:16.696Z,51.65
2019-03-29T03:38:23.701Z,47.98
2019-03-29T03:39:32.596Z,48.63
2019-03-29T03:40:38.393Z,49.00
2019-03-29T03:41:44.434Z,48.70
2019-03-29T03:42:51.009Z,47.05
2019-03-29T03:43:57.549Z,48.90
2019-03-29T03:45:04.458Z,48.90
2019-03-29T03:46:11.039Z,49.10
2019-03-29T03:47:17.307Z,49.40
2019-03-29T03:48:26.623Z,47.95
2019-03-29T03:49:33.326Z,49.18
2019-03-29T03:50:43.267Z,48.55
2019-03-29T03:51:49.470Z,52.35
2019-03-29T03:52:55.795Z,48.00
2019-03-29T03:54:02.777Z,47.27
2019-03-29T03:55:08.772Z,44.73
2019-03-29T03:56:16.258Z,45.95
2019-03-29T03:57:22.657Z,49.45
2019-03-29T03:58:30.296Z,47.65
2019-03-29T03:59:37.265Z,46.92
2019-03-29T04:00:52.556Z,47.25
2019-03-29T04:01:59.685Z,52.33
2019-03-29T04:03:05.422Z,51.73
2019-03-29T04:04:11.184Z,45.45
2019-03-29T04:05:16.709Z,48.05
2019-03-29T04:06:23.548Z,48.20
2019-03-29T04:07:29.401Z,46.70
2019-03-29T04:08:35.138Z,47.20
2019-03-29T04:09:50.122Z,49.55
2019-03-29T04:10:49.211Z,47.53
2019-03-29T04:11:55.184Z,47.10
2019-03-29T04:13:00.925Z,46.08
2019-03-29T04:14:07.819Z,47.13
2019-03-29T04:15:14.421Z,46.33
2019-03-29T04:16:20.897Z,47.53
2019-03-29T04:17:26.625Z,45.48
2019-03-29T04:18:32.429Z,45.92
2019-03-29T04:19:39.022Z,45.60
2019-03-29T04:20:44.815Z,46.55
2019-03-29T04:21:51.737Z,50.55
2019-03-29T04:22:57.824Z,52.67
2019-03-29T04:24:04.622Z,48.15
2019-03-29T04:25:10.395Z,45.67
2019-03-29T04:26:16.931Z,47.08
2019-03-29T04:27:23.471Z,46.77
2019-03-29T04:28:30.320Z,49.13
2019-03-29T04:29:36.431Z,48.15
2019-03-29T04:30:43.238Z,46.40
2019-03-29T04:31:49.691Z,48.28
2019-03-29T04:32:55.503Z,44.05
2019-03-29T04:34:02.922Z,49.03
2019-03-29T04:35:09.076Z,41.63
2019-03-29T04:36:14.855Z,46.18
2019-03-29T04:37:22.308Z,44.03
2019-03-29T04:38:30.051Z,43.30
2019-03-29T04:39:37.027Z,47.50
2019-03-29T04:40:43.565Z,46.63
2019-03-29T04:41:49.515Z,42.53
2019-03-29T04:42:56.243Z,45.45
2019-03-29T04:44:02.011Z,43.50
2019-03-29T04:45:08.549Z,46.88
2019-03-29T04:46:14.337Z,41.80
2019-03-29T04:47:20.524Z,46.75
2019-03-29T04:48:26.276Z,44.38
2019-03-29T04:49:33.208Z,46.45
2019-03-29T04:50:40.123Z,45.35
2019-03-29T04:51:47.167Z,48.33
2019-03-29T04:52:53.728Z,47.10
2019-03-29T04:54:00.002Z,47.43
2019-03-29T04:55:05.830Z,44.65
2019-03-29T04:56:11.891Z,46.18
2019-03-29T04:57:17.925Z,43.60
2019-03-29T04:58:23.943Z,44.35
2019-03-29T04:59:30.985Z,49.27
2019-03-29T05:00:38.739Z,44.13
2019-03-29T05:01:45.776Z,44.50
2019-03-29T05:02:53.108Z,40.08
2019-03-29T05:04:00.772Z,42.03
2019-03-29T05:05:06.619Z,43.40
2019-03-29T05:06:12.317Z,47.15
2019-03-29T05:07:17.975Z,43.42
2019-03-29T05:08:24.867Z,43.00
2019-03-29T05:09:31.140Z,43.60
2019-03-29T05:10:36.849Z,42.40
2019-03-29T05:11:44.691Z,44.35
2019-03-29T05:12:51.287Z,43.83
2019-03-29T05:13:58.199Z,43.25
2019-03-29T05:15:05.662Z,42.73
2019-03-29T05:16:11.734Z,45.33
2019-03-29T05:17:18.585Z,45.98
2019-03-29T05:18:25.713Z,44.35
2019-03-29T05:19:32.628Z,45.58
2019-03-29T05:20:38.597Z,41.35
2019-03-29T05:21:44.878Z,43.17
2019-03-29T05:22:51.200Z,40.28
2019-03-29T05:24:00.239Z,43.92
2019-03-29T05:25:06.131Z,40.10
2019-03-29T05:26:12.010Z,44.30
2019-03-29T05:27:19.371Z,39.48
2019-03-29T05:28:27.006Z,40.10
2019-03-29T05:29:33.232Z,41.35
2019-03-29T05:30:40.021Z,42.65
2019-03-29T05:31:46.465Z,41.90
2019-03-29T05:32:52.981Z,39.35
2019-03-29T05:34:00.470Z,48.02
2019-03-29T05:35:06.470Z,39.80
2019-03-29T05:36:12.983Z,39.90
2019-03-29T05:37:20.350Z,43.35
2019-03-29T05:38:27.318Z,45.03
2019-03-29T05:39:33.943Z,41.95
2019-03-29T05:40:41.149Z,44.23
2019-03-29T05:41:48.675Z,41.40
2019-03-29T05:42:55.205Z,42.15
2019-03-29T05:44:02.308Z,43.78
2019-03-29T05:45:09.119Z,38.85
2019-03-29T05:46:15.897Z,39.45
2019-03-29T05:47:23.214Z,38.63
2019-03-29T05:48:29.584Z,42.53
2019-03-29T05:49:36.931Z,42.58
2019-03-29T05:50:43.360Z,42.13
2019-03-29T05:51:49.396Z,40.70
2019-03-29T05:52:56.283Z,40.33
2019-03-29T05:54:01.881Z,40.50
2019-03-29T05:55:07.764Z,42.38
2019-03-29T05:56:14.166Z,43.10
2019-03-29T05:57:20.183Z,44.23
2019-03-29T05:58:26.515Z,44.03
2019-03-29T05:59:32.655Z,39.23
2019-03-29T06:00:39.350Z,43.58
2019-03-29T06:01:46.117Z,40.58
2019-03-29T06:02:51.463Z,41.55
2019-03-29T06:03:58.626Z,43.60
2019-03-29T06:05:05.302Z,41.90
2019-03-29T06:06:11.219Z,42.78
2019-03-29T06:07:17.268Z,45.35
2019-03-29T06:08:23.826Z,44.67
2019-03-29T06:09:29.640Z,40.80
2019-03-29T06:10:48.371Z,41.92
2019-03-29T06:11:44.023Z,40.25
2019-03-29T06:12:50.588Z,45.52
2019-03-29T06:13:56.051Z,43.02
2019-03-29T06:15:02.595Z,41.55
2019-03-29T06:16:09.174Z,44.55
2019-03-29T06:17:16.568Z,41.20
2019-03-29T06:18:23.193Z,42.65
2019-03-29T06:19:29.215Z,42.75
2019-03-29T06:20:35.477Z,38.15
2019-03-29T06:21:41.617Z,39.08
2019-03-29T06:22:48.542Z,40.80
2019-03-29T06:23:55.111Z,39.15
2019-03-29T06:25:01.135Z,39.38
2019-03-29T06:26:07.383Z,40.55
2019-03-29T06:27:13.483Z,38.63
2019-03-29T06:28:19.553Z,41.58
2019-03-29T06:29:26.992Z,40.17
2019-03-29T06:30:33.244Z,40.10
2019-03-29T06:31:40.561Z,38.63
2019-03-29T06:32:48.287Z,38.30
2019-03-29T06:33:54.136Z,41.10
2019-03-29T06:35:00.662Z,39.67
2019-03-29T06:36:08.063Z,34.40
2019-03-29T06:37:14.925Z,36.03
2019-03-29T06:38:26.147Z,39.65
2019-03-29T06:39:33.048Z,38.53
2019-03-29T06:40:39.639Z,36.13
2019-03-29T06:41:46.699Z,38.42
2019-03-29T06:42:53.392Z,39.15
2019-03-29T06:43:59.086Z,32.40
2019-03-29T06:45:05.021Z,33.58
2019-03-29T06:46:11.564Z,35.50
2019-03-29T06:47:17.507Z,31.12
2019-03-29T06:48:24.037Z,31.62
2019-03-29T06:49:30.588Z,31.85
2019-03-29T06:50:36.672Z,33.18
2019-03-29T06:51:42.457Z,33.48
2019-03-29T06:52:49.878Z,29.80
2019-03-29T06:53:55.435Z,29.35
2019-03-29T06:55:01.180Z,31.60
2019-03-29T06:56:06.937Z,29.85
2019-03-29T06:57:12.629Z,29.15
2019-03-29T06:58:19.783Z,28.30
2019-03-29T06:59:26.983Z,29.35
2019-03-29T07:00:34.739Z,27.65
2019-03-29T07:01:41.460Z,27.27
2019-03-29T07:02:48.327Z,25.30
2019-03-29T07:03:55.081Z,26.12
2019-03-29T07:05:01.801Z,25.57
2019-03-29T07:06:07.782Z,24.37
2019-03-29T07:07:13.280Z,24.60
2019-03-29T07:08:19.037Z,26.00
2019-03-29T07:09:24.764Z,26.95
2019-03-29T07:10:31.105Z,28.15
2019-03-29T07:11:39.684Z,26.87
2019-03-29T07:12:45.695Z,26.42
2019-03-29T07:13:57.826Z,28.85
2019-03-29T07:15:01.268Z,27.67
2019-03-29T07:16:08.111Z,28.85
2019-03-29T07:17:13.785Z,26.90
2019-03-29T07:18:20.144Z,28.23
2019-03-29T07:19:27.289Z,28.25
2019-03-29T07:20:33.916Z,25.75
2019-03-29T07:21:40.427Z,27.00
2019-03-29T07:22:46.486Z,26.55
2019-03-29T07:23:52.899Z,22.98
2019-03-29T07:24:59.273Z,24.32
2019-03-29T07:26:05.479Z,26.15
2019-03-29T07:27:13.030Z,22.65
2019-03-29T07:28:19.081Z,25.77
2019-03-29T07:29:25.111Z,24.47
2019-03-29T07:30:31.137Z,21.60
2019-03-29T07:31:36.911Z,22.35
2019-03-29T07:32:42.615Z,21.48
2019-03-29T07:33:50.025Z,22.05
2019-03-29T07:34:55.624Z,21.57
2019-03-29T07:36:01.299Z,22.45
2019-03-29T07:37:08.002Z,23.52
2019-03-29T07:38:14.673Z,21.17
2019-03-29T07:39:21.771Z,20.68
2019-03-29T07:40:27.326Z,19.52
2019-03-29T07:41:34.432Z,19.62
2019-03-29T07:42:42.324Z,19.55
2019-03-29T07:43:49.157Z,17.32
2019-03-29T07:44:55.191Z,23.83
2019-03-29T07:46:02.577Z,14.63
2019-03-29T07:47:09.493Z,16.02
2019-03-29T07:48:16.000Z,15.03
2019-03-29T07:49:22.855Z,21.85
2019-03-29T07:50:29.090Z,17.48
2019-03-29T07:51:35.198Z,14.90
2019-03-29T07:52:41.978Z,14.13
2019-03-29T07:53:51.193Z,12.85
2019-03-29T07:54:57.932Z,13.08
2019-03-29T07:56:04.284Z,12.28
2019-03-29T07:57:10.845Z,12.85
2019-03-29T07:58:16.521Z,11.73
2019-03-29T07:59:23.348Z,14.07
2019-03-29T08:00:29.111Z,13.88
2019-03-29T08:01:36.130Z,12.37
2019-03-29T08:02:42.573Z,13.32
2019-03-29T08:03:51.299Z,12.65
2019-03-29T08:04:57.923Z,12.45
2019-03-29T08:06:03.394Z,12.33
2019-03-29T08:07:09.863Z,11.78
2019-03-29T08:08:23.904Z,11.53
2019-03-29T08:09:24.871Z,11.15
2019-03-29T08:10:31.860Z,11.80
2019-03-29T08:11:46.277Z,12.18
2019-03-29T08:12:46.381Z,12.35
2019-03-29T08:13:52.135Z,10.85
2019-03-29T08:14:57.982Z,14.18
2019-03-29T08:16:06.669Z,12.03
2019-03-29T08:17:12.034Z,11.38
2019-03-29T08:18:18.035Z,15.20
2019-03-29T08:19:23.541Z,11.75
2019-03-29T08:20:41.697Z,11.53
2019-03-29T08:21:37.570Z,11.43
2019-03-29T08:22:44.416Z,12.68
2019-03-29T08:23:50.485Z,14.40
2019-03-29T08:24:59.348Z,12.20
2019-03-29T08:26:06.071Z,11.65
2019-03-29T08:27:12.485Z,11.38
2019-03-29T08:28:18.588Z,10.85
2019-03-29T08:29:24.649Z,11.97
2019-03-29T08:30:30.884Z,11.10
2019-03-29T08:31:37.723Z,12.23
2019-03-29T08:32:44.568Z,11.40
2019-03-29T08:33:50.583Z,12.18
2019-03-29T08:34:56.331Z,14.20
2019-03-29T08:36:02.532Z,11.28
2019-03-29T08:37:09.198Z,14.07
2019-03-29T08:38:14.988Z,11.28
2019-03-29T08:39:27.808Z,12.98
2019-03-29T08:40:28.176Z,12.82
2019-03-29T08:41:33.766Z,14.47
2019-03-29T08:42:39.759Z,13.80
2019-03-29T08:43:46.403Z,14.53
2019-03-29T08:44:53.040Z,11.38
2019-03-29T08:45:58.698Z,11.70
2019-03-29T08:47:04.745Z,12.28
2019-03-29T08:48:10.730Z,12.13
2019-03-29T08:49:16.966Z,12.03
2019-03-29T08:50:22.931Z,10.85
2019-03-29T08:51:28.701Z,11.83
2019-03-29T08:52:34.716Z,11.00
2019-03-29T08:53:41.795Z,12.07
2019-03-29T08:54:51.074Z,11.90
2019-03-29T08:55:56.777Z,12.45
2019-03-29T08:57:02.619Z,11.88
2019-03-29T08:58:08.667Z,12.93
2019-03-29T08:59:17.228Z,11.25
2019-03-29T09:00:32.142Z,12.07
2019-03-29T09:01:39.200Z,11.45
2019-03-29T09:02:45.542Z,12.18
2019-03-29T09:04:04.758Z,11.73
2019-03-29T09:04:59.082Z,11.95
2019-03-29T09:06:05.252Z,12.45
2019-03-29T09:07:12.060Z,12.30
2019-03-29T09:08:18.752Z,13.53
2019-03-29T09:09:25.576Z,13.00
2019-03-29T09:10:32.142Z,14.18
2019-03-29T09:11:39.051Z,13.25
2019-03-29T09:12:45.941Z,12.60
2019-03-29T09:13:52.314Z,14.20
2019-03-29T09:14:58.528Z,14.63
2019-03-29T09:16:05.393Z,12.82
2019-03-29T09:17:12.275Z,12.53
2019-03-29T09:18:18.321Z,13.48
2019-03-29T09:19:25.801Z,13.55
2019-03-29T09:20:34.249Z,13.22
2019-03-29T09:21:39.754Z,13.50
2019-03-29T09:22:46.524Z,13.28
2019-03-29T09:23:53.066Z,13.00
2019-03-29T09:24:58.996Z,13.20
2019-03-29T09:26:04.950Z,13.35
2019-03-29T09:27:11.263Z,12.65
2019-03-29T09:28:16.770Z,13.03
2019-03-29T09:29:22.810Z,13.80
2019-03-29T09:30:28.531Z,13.95
2019-03-29T09:31:34.430Z,13.43
2019-03-29T09:32:41.444Z,14.07
2019-03-29T09:33:48.017Z,13.43
2019-03-29T09:34:55.174Z,13.75
2019-03-29T09:36:00.682Z,13.78
2019-03-29T09:37:07.225Z,14.30
2019-03-29T09:38:13.827Z,13.62
2019-03-29T09:39:21.009Z,14.30
2019-03-29T09:40:27.080Z,13.83
2019-03-29T09:41:32.871Z,13.40
2019-03-29T09:42:38.618Z,13.32
2019-03-29T09:43:45.137Z,13.48
2019-03-29T09:44:51.669Z,13.55
2019-03-29T09:45:58.244Z,13.55
2019-03-29T09:47:04.778Z,13.08
2019-03-29T09:48:10.229Z,14.05
2019-03-29T09:49:16.048Z,15.13
2019-03-29T09:50:23.125Z,13.62
2019-03-29T09:51:30.194Z,13.78
2019-03-29T09:52:36.622Z,13.40
2019-03-29T09:53:42.457Z,13.03
2019-03-29T09:54:49.367Z,11.80
2019-03-29T09:55:56.220Z,13.53
2019-03-29T09:57:02.406Z,13.10
2019-03-29T09:58:08.915Z,12.30
2019-03-29T09:59:16.471Z,11.60
2019-03-29T10:00:23.584Z,13.10
2019-03-29T10:01:31.006Z,12.90
2019-03-29T10:02:37.693Z,13.40
2019-03-29T10:03:45.157Z,12.00
2019-03-29T10:04:51.279Z,11.70
2019-03-29T10:05:57.829Z,12.37
2019-03-29T10:07:03.648Z,12.03
2019-03-29T10:08:09.688Z,12.60
2019-03-29T10:09:15.719Z,12.15
2019-03-29T10:10:22.414Z,12.78
2019-03-29T10:11:28.192Z,12.23
2019-03-29T10:12:43.463Z,12.47
2019-03-29T10:13:43.859Z,10.75
2019-03-29T10:14:50.077Z,11.43
2019-03-29T10:15:56.063Z,10.53
2019-03-29T10:17:02.306Z,11.45
2019-03-29T10:18:08.788Z,10.95
2019-03-29T10:19:14.786Z,11.12
2019-03-29T10:20:20.384Z,10.72
2019-03-29T10:21:26.181Z,12.35
2019-03-29T10:22:32.588Z,11.18
2019-03-29T10:23:38.331Z,11.35
2019-03-29T10:24:44.701Z,11.80
2019-03-29T10:25:50.986Z,10.68
2019-03-29T10:26:58.416Z,10.58
2019-03-29T10:28:03.913Z,12.65
2019-03-29T10:29:10.396Z,10.70
2019-03-29T10:30:21.179Z,11.68
2019-03-29T10:31:32.624Z,11.35
2019-03-29T10:32:36.341Z,9.75
2019-03-29T10:33:42.794Z,9.33
2019-03-29T10:34:48.740Z,11.05
2019-03-29T10:35:54.845Z,8.83
2019-03-29T10:37:01.589Z,10.13
2019-03-29T10:38:07.461Z,8.78
2019-03-29T10:39:14.042Z,8.78
2019-03-29T10:40:21.902Z,10.10
2019-03-29T10:41:28.001Z,7.85
2019-03-29T10:42:34.917Z,9.20
2019-03-29T10:43:41.282Z,10.43
2019-03-29T10:44:49.407Z,11.30
2019-03-29T10:45:54.881Z,9.50
2019-03-29T10:47:02.442Z,13.00
2019-03-29T10:48:09.928Z,9.00
2019-03-29T10:49:17.434Z,9.18
2019-03-29T10:50:24.160Z,9.75
2019-03-29T10:51:30.719Z,10.00
2019-03-29T10:52:36.749Z,8.60
2019-03-29T10:53:42.499Z,9.75
2019-03-29T10:54:50.075Z,10.32
2019-03-29T10:55:56.801Z,10.82
2019-03-29T10:57:02.926Z,9.48
2019-03-29T10:58:09.824Z,8.28
2019-03-29T10:59:26.667Z,8.18
2019-03-29T11:00:34.782Z,9.28
2019-03-29T11:01:40.830Z,8.48
2019-03-29T11:02:47.793Z,7.95
2019-03-29T11:03:55.118Z,8.00
2019-03-29T11:05:02.057Z,7.75
2019-03-29T11:06:07.818Z,7.25
2019-03-29T11:07:15.364Z,7.78
2019-03-29T11:08:22.790Z,7.85
2019-03-29T11:09:28.831Z,8.23
2019-03-29T11:10:35.465Z,8.18
2019-03-29T11:11:41.673Z,7.25
2019-03-29T11:12:47.476Z,8.05
2019-03-29T11:13:56.662Z,8.00
2019-03-29T11:15:02.347Z,8.70
2019-03-29T11:16:08.561Z,6.42
2019-03-29T11:17:15.506Z,6.72
2019-03-29T11:18:21.290Z,5.65
2019-03-29T11:19:27.133Z,6.33
2019-03-29T11:20:32.976Z,6.60
2019-03-29T11:21:38.723Z,6.37
2019-03-29T11:22:44.768Z,6.55
2019-03-29T11:23:51.145Z,5.65
2019-03-29T11:24:57.719Z,6.47
2019-03-29T11:26:03.668Z,9.35
2019-03-29T11:27:09.281Z,7.35
2019-03-29T11:28:16.224Z,6.53
2019-03-29T11:29:23.453Z,6.65
2019-03-29T11:30:41.525Z,7.12
2019-03-29T11:31:37.328Z,7.37
2019-03-29T11:32:44.244Z,6.90
2019-03-29T11:33:50.266Z,7.28
2019-03-29T11:34:56.610Z,6.95
2019-03-29T11:36:03.584Z,7.42
2019-03-29T11:37:09.572Z,7.28
2019-03-29T11:38:15.660Z,9.30
2019-03-29T11:39:22.845Z,8.45
2019-03-29T11:40:28.882Z,9.13
2019-03-29T11:41:35.386Z,7.83
2019-03-29T11:42:41.711Z,8.35
2019-03-29T11:43:47.453Z,7.80
2019-03-29T11:44:53.491Z,7.42
2019-03-29T11:46:00.414Z,8.13
2019-03-29T11:47:06.900Z,8.20
2019-03-29T11:48:13.133Z,7.35
2019-03-29T11:49:19.709Z,7.33
2019-03-29T11:50:29.122Z,7.30
2019-03-29T11:51:35.476Z,9.83
2019-03-29T11:52:42.007Z,6.87
2019-03-29T11:53:50.975Z,9.90
2019-03-29T11:54:56.740Z,8.35
2019-03-29T11:56:02.392Z,8.70
2019-03-29T11:57:09.345Z,9.23
2019-03-29T11:58:15.850Z,8.60
2019-03-29T11:59:22.683Z,8.45
2019-03-29T12:00:39.727Z,9.63
2019-03-29T12:01:46.108Z,7.33
2019-03-29T12:02:52.171Z,7.47
2019-03-29T12:03:58.971Z,8.90
2019-03-29T12:05:05.174Z,8.10
2019-03-29T12:06:10.923Z,8.80
2019-03-29T12:07:17.553Z,8.45
2019-03-29T12:08:24.384Z,8.23
2019-03-29T12:09:30.367Z,8.85
2019-03-29T12:10:36.230Z,8.13
2019-03-29T12:11:43.056Z,7.78
2019-03-29T12:12:49.668Z,7.58
2019-03-29T12:13:56.177Z,6.47
2019-03-29T12:15:01.902Z,8.18
2019-03-29T12:16:08.225Z,6.97
2019-03-29T12:17:14.832Z,6.87
2019-03-29T12:18:21.367Z,5.78
2019-03-29T12:19:28.046Z,7.08
2019-03-29T12:20:34.105Z,8.85
2019-03-29T12:21:39.774Z,6.22
2019-03-29T12:22:46.300Z,5.53
2019-03-29T12:23:52.932Z,5.75
2019-03-29T12:24:59.506Z,5.58
2019-03-29T12:26:05.900Z,6.80
2019-03-29T12:27:11.940Z,5.33
2019-03-29T12:28:19.203Z,6.28
2019-03-29T12:29:26.094Z,5.67
2019-03-29T12:30:32.583Z,5.80
2019-03-29T12:31:38.737Z,5.37
2019-03-29T12:32:45.871Z,4.92
2019-03-29T12:33:51.634Z,4.97
2019-03-29T12:34:57.842Z,5.53
2019-03-29T12:36:04.676Z,5.87
2019-03-29T12:37:11.026Z,6.10
2019-03-29T12:38:17.665Z,5.85
2019-03-29T12:39:23.681Z,5.55
2019-03-29T12:40:30.518Z,5.28
2019-03-29T12:41:36.791Z,4.75
2019-03-29T12:42:43.388Z,4.40
2019-03-29T12:43:55.968Z,4.65
2019-03-29T12:44:57.672Z,3.52
2019-03-29T12:46:04.754Z,5.53
2019-03-29T12:47:11.228Z,5.55
2019-03-29T12:48:17.803Z,3.80
2019-03-29T12:49:24.728Z,4.30
2019-03-29T12:50:30.932Z,4.30
2019-03-29T12:51:37.783Z,4.58
2019-03-29T12:52:44.679Z,6.20
2019-03-29T12:53:52.044Z,4.40
2019-03-29T12:54:59.082Z,4.35
2019-03-29T12:56:05.055Z,3.42
2019-03-29T12:57:12.307Z,3.80
2019-03-29T12:58:18.907Z,3.87
2019-03-29T12:59:25.667Z,4.17
2019-03-29T13:00:31.455Z,4.42
2019-03-29T13:01:39.587Z,4.37
2019-03-29T13:02:44.696Z,3.98
2019-03-29T13:03:51.911Z,4.28
2019-03-29T13:04:58.775Z,4.30
2019-03-29T13:06:05.340Z,4.55
2019-03-29T13:07:12.075Z,4.37
2019-03-29T13:08:19.492Z,4.92
2019-03-29T13:09:26.319Z,3.85
2019-03-29T13:10:32.356Z,5.42
2019-03-29T13:11:38.292Z,4.22
2019-03-29T13:12:44.043Z,4.00
2019-03-29T13:13:51.868Z,4.25
2019-03-29T13:14:59.488Z,4.60
2019-03-29T13:16:05.783Z,4.40
2019-03-29T13:17:11.879Z,4.72
2019-03-29T13:18:18.084Z,5.00
2019-03-29T13:19:24.990Z,3.92
2019-03-29T13:20:31.384Z,4.40
2019-03-29T13:21:38.970Z,4.03
2019-03-29T13:22:45.504Z,4.50
2019-03-29T13:23:52.619Z,4.17
2019-03-29T13:24:59.186Z,4.83
2019-03-29T13:26:05.443Z,5.28
2019-03-29T13:27:11.983Z,4.53
2019-03-29T13:28:18.400Z,4.20
2019-03-29T13:29:24.522Z,5.55
2019-03-29T13:30:32.117Z,4.60
2019-03-29T13:31:39.514Z,4.50
2019-03-29T13:32:46.134Z,6.08
2019-03-29T13:33:52.051Z,4.60
2019-03-29T13:34:58.790Z,5.03
2019-03-29T13:36:05.730Z,4.53
2019-03-29T13:37:12.696Z,4.42
2019-03-29T13:38:20.502Z,5.12
2019-03-29T13:39:27.798Z,5.58
2019-03-29T13:40:33.796Z,4.53
2019-03-29T13:41:39.729Z,4.53
2019-03-29T13:42:45.483Z,4.90
2019-03-29T13:43:51.215Z,6.33
2019-03-29T13:44:58.075Z,4.78
2019-03-29T13:46:04.076Z,4.70
2019-03-29T13:47:10.677Z,4.55
2019-03-29T13:48:17.831Z,5.62
2019-03-29T13:49:25.236Z,4.85
2019-03-29T13:50:32.293Z,5.10
2019-03-29T13:51:38.071Z,4.83
2019-03-29T13:52:45.666Z,4.67
2019-03-29T13:53:52.303Z,4.58
2019-03-29T13:54:59.384Z,4.85
2019-03-29T13:56:06.400Z,5.45
2019-03-29T13:57:13.555Z,6.03
2019-03-29T13:58:19.512Z,4.33
2019-03-29T13:59:26.942Z,3.92
2019-03-29T14:00:32.731Z,6.05
2019-03-29T14:01:40.332Z,4.33
2019-03-29T14:02:46.912Z,4.87
2019-03-29T14:03:53.494Z,3.75
2019-03-29T14:04:59.534Z,3.85
2019-03-29T14:06:05.540Z,4.53
2019-03-29T14:07:11.591Z,4.62
2019-03-29T14:08:18.933Z,4.25
2019-03-29T14:09:25.591Z,5.03
2019-03-29T14:10:32.770Z,3.95
2019-03-29T14:11:38.529Z,6.25
2019-03-29T14:12:45.014Z,4.85
2019-03-29T14:13:52.544Z,3.52
2019-03-29T14:15:01.261Z,4.50
2019-03-29T14:16:07.864Z,5.10
2019-03-29T14:17:13.629Z,6.05
2019-03-29T14:18:20.314Z,4.90
2019-03-29T14:19:26.424Z,4.12
2019-03-29T14:20:36.212Z,4.50
2019-03-29T14:21:43.551Z,5.10
2019-03-29T14:22:50.428Z,4.05
2019-03-29T14:23:57.285Z,3.65
2019-03-29T14:25:03.444Z,4.50
2019-03-29T14:26:10.340Z,4.12